Etusivu
METAR-TAF:

METAR-TAF

Lentoasemat :

Baraboo Wisconsin Dells Airport

Baraboo / Wisconsin Dells, Wisconsin, Yhdysvallat

Leveyspiiri: 43-31-19N, Pituuspiiri: 089-46-15W, korkeus merenpinnasta: 298 m

Tämänhetkinen sää

Tämä raportti tehtiin 20 minuuttia sitten, kello 14.55 UTC
Tuuli 7 kn lännestä/lounaasta
Lämpötila 5°C
Kosteus 100%
Ilmanpaine 994 hPa
Näkyvyys: 3.2 km
Pilvistä 400 ft:n korkeudessa
heikkoa sadetta

METAR: KDLL 291455Z AUTO 24007KT 2SM -RA OVC004 05/05 A2935 RMK AO2 T00480048

Aika: 10:15 (15:15 UTC)


TAF: puuttuu

Säähavainnot ja -ennusteet yli 4000 lentoasemalta (METAR- ja TAF-raportit).

Käytössä olevat sääasemat on merkitty karttaan keltaisilla ja punaisilla pisteillä.

Aseta hiiri pisteen päälle nähdäksesi sääaseman nimen.

Klikkaa sitten nähdäksesi säähavainnot ja -ennusteet.

Kartan vaihtaminen: klikkaa mustalla rastilla varustettuja vihreitä pisteitä, niin voit zoomata sisään; viivalla varustettua vihreää pistettä, niin voit zoomata ulos tai vihreitä nuolia, niin pääset viereisille kartoille.


METAR-TAF: